sensor_id;sensor_type;location;lat;lon;timestamp;P1;durP1;ratioP1;P2;durP2;ratioP2
23995;SDS011;12207;50.076;8.848;2024-01-07T00:02:01;327.50;;;75.82;;
23995;SDS011;12207;50.076;8.848;2024-01-07T00:04:27;328.27;;;74.70;;
23995;SDS011;12207;50.076;8.848;2024-01-07T00:06:53;322.55;;;76.93;;
23995;SDS011;12207;50.076;8.848;2024-01-07T00:09:20;336.13;;;75.60;;
23995;SDS011;12207;50.076;8.848;2024-01-07T00:11:46;329.63;;;79.82;;
23995;SDS011;12207;50.076;8.848;2024-01-07T00:14:12;324.00;;;73.47;;
23995;SDS011;12207;50.076;8.848;2024-01-07T00:16:40;338.25;;;75.35;;
23995;SDS011;12207;50.076;8.848;2024-01-07T00:19:08;307.27;;;71.47;;
23995;SDS011;12207;50.076;8.848;2024-01-07T00:21:34;338.55;;;76.18;;
23995;SDS011;12207;50.076;8.848;2024-01-07T00:24:00;327.40;;;74.75;;
23995;SDS011;12207;50.076;8.848;2024-01-07T00:26:26;330.65;;;77.03;;
23995;SDS011;12207;50.076;8.848;2024-01-07T00:28:52;323.98;;;74.53;;
23995;SDS011;12207;50.076;8.848;2024-01-07T00:31:18;336.15;;;77.63;;
23995;SDS011;12207;50.076;8.848;2024-01-07T00:33:45;329.30;;;76.28;;
23995;SDS011;12207;50.076;8.848;2024-01-07T00:36:11;341.30;;;76.65;;
23995;SDS011;12207;50.076;8.848;2024-01-07T00:38:37;329.52;;;79.18;;
23995;SDS011;12207;50.076;8.848;2024-01-07T00:41:05;329.65;;;75.93;;
23995;SDS011;12207;50.076;8.848;2024-01-07T00:43:32;326.15;;;74.82;;
23995;SDS011;12207;50.076;8.848;2024-01-07T00:45:58;338.25;;;76.53;;
23995;SDS011;12207;50.076;8.848;2024-01-07T00:48:24;314.10;;;73.70;;
23995;SDS011;12207;50.076;8.848;2024-01-07T00:50:50;313.73;;;73.63;;
23995;SDS011;12207;50.076;8.848;2024-01-07T00:53:16;325.70;;;76.90;;
23995;SDS011;12207;50.076;8.848;2024-01-07T00:55:42;330.45;;;78.03;;
23995;SDS011;12207;50.076;8.848;2024-01-07T00:58:08;311.10;;;72.70;;
23995;SDS011;12207;50.076;8.848;2024-01-07T01:00:34;318.65;;;75.00;;
23995;SDS011;12207;50.076;8.848;2024-01-07T01:03:00;329.42;;;74.85;;
23995;SDS011;12207;50.076;8.848;2024-01-07T01:05:26;320.13;;;73.13;;
23995;SDS011;12207;50.076;8.848;2024-01-07T01:07:52;325.45;;;76.30;;
23995;SDS011;12207;50.076;8.848;2024-01-07T01:10:18;335.40;;;76.20;;
23995;SDS011;12207;50.076;8.848;2024-01-07T01:12:45;330.88;;;86.45;;
23995;SDS011;12207;50.076;8.848;2024-01-07T01:15:11;336.27;;;79.15;;
23995;SDS011;12207;50.076;8.848;2024-01-07T01:17:37;337.70;;;75.85;;
23995;SDS011;12207;50.076;8.848;2024-01-07T01:20:03;326.60;;;74.65;;
23995;SDS011;12207;50.076;8.848;2024-01-07T01:22:30;331.52;;;75.03;;
23995;SDS011;12207;50.076;8.848;2024-01-07T01:24:56;350.17;;;77.93;;
23995;SDS011;12207;50.076;8.848;2024-01-07T01:27:22;314.23;;;81.15;;
23995;SDS011;12207;50.076;8.848;2024-01-07T01:29:48;333.67;;;77.63;;
23995;SDS011;12207;50.076;8.848;2024-01-07T01:32:14;343.50;;;78.18;;
23995;SDS011;12207;50.076;8.848;2024-01-07T01:34:40;332.88;;;75.47;;
23995;SDS011;12207;50.076;8.848;2024-01-07T01:37:08;313.15;;;73.82;;
23995;SDS011;12207;50.076;8.848;2024-01-07T01:39:34;321.00;;;74.03;;
23995;SDS011;12207;50.076;8.848;2024-01-07T01:42:01;312.48;;;72.57;;
23995;SDS011;12207;50.076;8.848;2024-01-07T01:44:27;313.45;;;73.45;;
23995;SDS011;12207;50.076;8.848;2024-01-07T01:46:53;327.23;;;78.47;;
23995;SDS011;12207;50.076;8.848;2024-01-07T01:49:21;320.83;;;73.53;;
23995;SDS011;12207;50.076;8.848;2024-01-07T01:51:47;316.40;;;72.70;;
23995;SDS011;12207;50.076;8.848;2024-01-07T01:54:14;320.58;;;72.95;;
23995;SDS011;12207;50.076;8.848;2024-01-07T01:56:41;327.67;;;77.72;;
23995;SDS011;12207;50.076;8.848;2024-01-07T01:59:08;309.15;;;71.95;;
23995;SDS011;12207;50.076;8.848;2024-01-07T02:01:34;318.73;;;72.03;;
23995;SDS011;12207;50.076;8.848;2024-01-07T02:04:00;312.10;;;71.93;;
23995;SDS011;12207;50.076;8.848;2024-01-07T02:06:26;324.90;;;73.05;;
23995;SDS011;12207;50.076;8.848;2024-01-07T02:08:52;316.73;;;72.95;;
23995;SDS011;12207;50.076;8.848;2024-01-07T02:11:20;321.48;;;72.40;;
23995;SDS011;12207;50.076;8.848;2024-01-07T02:13:47;312.88;;;71.97;;
23995;SDS011;12207;50.076;8.848;2024-01-07T02:16:14;310.13;;;71.72;;
23995;SDS011;12207;50.076;8.848;2024-01-07T02:18:41;324.08;;;72.88;;
23995;SDS011;12207;50.076;8.848;2024-01-07T02:21:13;312.52;;;71.95;;
23995;SDS011;12207;50.076;8.848;2024-01-07T02:23:40;310.27;;;72.32;;
23995;SDS011;12207;50.076;8.848;2024-01-07T02:26:06;308.48;;;72.38;;
23995;SDS011;12207;50.076;8.848;2024-01-07T02:28:32;303.45;;;71.85;;
23995;SDS011;12207;50.076;8.848;2024-01-07T02:30:58;314.17;;;72.68;;
23995;SDS011;12207;50.076;8.848;2024-01-07T02:33:25;325.02;;;73.90;;
23995;SDS011;12207;50.076;8.848;2024-01-07T02:35:51;301.25;;;71.65;;
23995;SDS011;12207;50.076;8.848;2024-01-07T02:38:17;316.98;;;72.97;;
23995;SDS011;12207;50.076;8.848;2024-01-07T02:40:43;331.83;;;73.75;;
23995;SDS011;12207;50.076;8.848;2024-01-07T02:43:09;312.60;;;72.53;;
23995;SDS011;12207;50.076;8.848;2024-01-07T02:45:35;315.65;;;72.78;;
23995;SDS011;12207;50.076;8.848;2024-01-07T02:48:01;312.35;;;73.75;;
23995;SDS011;12207;50.076;8.848;2024-01-07T02:50:28;311.45;;;72.65;;
23995;SDS011;12207;50.076;8.848;2024-01-07T02:52:54;312.63;;;72.22;;
23995;SDS011;12207;50.076;8.848;2024-01-07T02:55:20;318.50;;;73.25;;
23995;SDS011;12207;50.076;8.848;2024-01-07T02:57:46;310.85;;;72.43;;
23995;SDS011;12207;50.076;8.848;2024-01-07T03:00:12;308.85;;;71.47;;
23995;SDS011;12207;50.076;8.848;2024-01-07T03:02:39;313.63;;;72.82;;
23995;SDS011;12207;50.076;8.848;2024-01-07T03:05:05;309.38;;;72.15;;
23995;SDS011;12207;50.076;8.848;2024-01-07T03:07:31;307.33;;;72.55;;
23995;SDS011;12207;50.076;8.848;2024-01-07T03:09:57;310.20;;;72.25;;
23995;SDS011;12207;50.076;8.848;2024-01-07T03:12:23;304.17;;;70.88;;
23995;SDS011;12207;50.076;8.848;2024-01-07T03:14:52;299.95;;;71.43;;
23995;SDS011;12207;50.076;8.848;2024-01-07T03:17:19;311.17;;;72.82;;
23995;SDS011;12207;50.076;8.848;2024-01-07T03:19:46;325.92;;;72.45;;
23995;SDS011;12207;50.076;8.848;2024-01-07T03:22:12;303.35;;;70.75;;
23995;SDS011;12207;50.076;8.848;2024-01-07T03:24:38;305.67;;;71.43;;
23995;SDS011;12207;50.076;8.848;2024-01-07T03:27:07;322.55;;;72.60;;
23995;SDS011;12207;50.076;8.848;2024-01-07T03:29:33;305.27;;;72.53;;
23995;SDS011;12207;50.076;8.848;2024-01-07T03:32:01;311.00;;;72.60;;
23995;SDS011;12207;50.076;8.848;2024-01-07T03:34:27;322.05;;;73.25;;
23995;SDS011;12207;50.076;8.848;2024-01-07T03:36:53;301.42;;;70.70;;
23995;SDS011;12207;50.076;8.848;2024-01-07T03:39:19;311.10;;;71.68;;
23995;SDS011;12207;50.076;8.848;2024-01-07T03:41:45;319.48;;;72.63;;
23995;SDS011;12207;50.076;8.848;2024-01-07T03:44:11;296.45;;;71.32;;
23995;SDS011;12207;50.076;8.848;2024-01-07T03:46:37;318.30;;;72.15;;
23995;SDS011;12207;50.076;8.848;2024-01-07T03:49:03;314.30;;;71.97;;
23995;SDS011;12207;50.076;8.848;2024-01-07T03:51:29;323.15;;;74.53;;
23995;SDS011;12207;50.076;8.848;2024-01-07T03:53:55;305.27;;;72.32;;
23995;SDS011;12207;50.076;8.848;2024-01-07T03:56:21;308.85;;;73.05;;
23995;SDS011;12207;50.076;8.848;2024-01-07T03:58:47;306.73;;;72.40;;
23995;SDS011;12207;50.076;8.848;2024-01-07T04:01:17;303.77;;;71.30;;
23995;SDS011;12207;50.076;8.848;2024-01-07T04:03:43;304.70;;;71.97;;
23995;SDS011;12207;50.076;8.848;2024-01-07T04:06:09;309.80;;;73.13;;
23995;SDS011;12207;50.076;8.848;2024-01-07T04:08:35;310.17;;;71.88;;
23995;SDS011;12207;50.076;8.848;2024-01-07T04:11:04;312.63;;;73.18;;
23995;SDS011;12207;50.076;8.848;2024-01-07T04:13:30;318.20;;;73.95;;
23995;SDS011;12207;50.076;8.848;2024-01-07T04:15:56;321.17;;;73.63;;
23995;SDS011;12207;50.076;8.848;2024-01-07T04:18:22;319.27;;;74.30;;
23995;SDS011;12207;50.076;8.848;2024-01-07T04:20:48;324.70;;;73.35;;
23995;SDS011;12207;50.076;8.848;2024-01-07T04:23:14;311.15;;;72.32;;
23995;SDS011;12207;50.076;8.848;2024-01-07T04:25:40;312.95;;;72.40;;
23995;SDS011;12207;50.076;8.848;2024-01-07T04:28:07;323.65;;;73.30;;
23995;SDS011;12207;50.076;8.848;2024-01-07T04:30:36;305.90;;;71.03;;
23995;SDS011;12207;50.076;8.848;2024-01-07T04:33:02;326.50;;;74.45;;
23995;SDS011;12207;50.076;8.848;2024-01-07T04:35:28;311.15;;;72.93;;
23995;SDS011;12207;50.076;8.848;2024-01-07T04:37:55;310.40;;;73.15;;
23995;SDS011;12207;50.076;8.848;2024-01-07T04:40:21;322.02;;;74.07;;
23995;SDS011;12207;50.076;8.848;2024-01-07T04:42:47;317.35;;;74.55;;
23995;SDS011;12207;50.076;8.848;2024-01-07T04:45:13;330.10;;;75.38;;
23995;SDS011;12207;50.076;8.848;2024-01-07T04:47:39;311.05;;;73.47;;
23995;SDS011;12207;50.076;8.848;2024-01-07T04:50:05;326.65;;;74.28;;
23995;SDS011;12207;50.076;8.848;2024-01-07T04:52:31;307.80;;;72.88;;
23995;SDS011;12207;50.076;8.848;2024-01-07T04:54:58;302.35;;;71.03;;
23995;SDS011;12207;50.076;8.848;2024-01-07T04:57:26;319.02;;;73.70;;
23995;SDS011;12207;50.076;8.848;2024-01-07T04:59:52;307.63;;;72.10;;
23995;SDS011;12207;50.076;8.848;2024-01-07T05:02:18;313.38;;;74.60;;
23995;SDS011;12207;50.076;8.848;2024-01-07T05:04:45;326.48;;;75.07;;
23995;SDS011;12207;50.076;8.848;2024-01-07T05:07:14;308.80;;;72.20;;
23995;SDS011;12207;50.076;8.848;2024-01-07T05:09:40;304.58;;;72.78;;
23995;SDS011;12207;50.076;8.848;2024-01-07T05:12:06;316.17;;;72.57;;
23995;SDS011;12207;50.076;8.848;2024-01-07T05:14:32;306.90;;;72.53;;
23995;SDS011;12207;50.076;8.848;2024-01-07T05:16:58;304.05;;;71.55;;
23995;SDS011;12207;50.076;8.848;2024-01-07T05:19:24;325.05;;;74.72;;
23995;SDS011;12207;50.076;8.848;2024-01-07T05:21:50;305.35;;;71.95;;
23995;SDS011;12207;50.076;8.848;2024-01-07T05:24:16;311.90;;;72.95;;
23995;SDS011;12207;50.076;8.848;2024-01-07T05:26:43;315.08;;;73.57;;
23995;SDS011;12207;50.076;8.848;2024-01-07T05:29:09;315.80;;;73.18;;
23995;SDS011;12207;50.076;8.848;2024-01-07T05:31:37;310.70;;;71.88;;
23995;SDS011;12207;50.076;8.848;2024-01-07T05:34:04;326.58;;;73.88;;
23995;SDS011;12207;50.076;8.848;2024-01-07T05:36:31;325.77;;;74.63;;
23995;SDS011;12207;50.076;8.848;2024-01-07T05:38:57;312.00;;;72.10;;
23995;SDS011;12207;50.076;8.848;2024-01-07T05:41:23;323.15;;;73.65;;
23995;SDS011;12207;50.076;8.848;2024-01-07T05:43:49;313.88;;;73.30;;
23995;SDS011;12207;50.076;8.848;2024-01-07T05:46:16;312.92;;;73.47;;
23995;SDS011;12207;50.076;8.848;2024-01-07T05:48:42;320.10;;;74.47;;
23995;SDS011;12207;50.076;8.848;2024-01-07T05:51:10;307.58;;;73.15;;
23995;SDS011;12207;50.076;8.848;2024-01-07T05:53:37;308.85;;;72.78;;
23995;SDS011;12207;50.076;8.848;2024-01-07T05:56:07;320.70;;;73.50;;
23995;SDS011;12207;50.076;8.848;2024-01-07T05:58:36;323.70;;;74.60;;
23995;SDS011;12207;50.076;8.848;2024-01-07T06:01:02;304.20;;;72.00;;
23995;SDS011;12207;50.076;8.848;2024-01-07T06:03:28;312.13;;;73.05;;
23995;SDS011;12207;50.076;8.848;2024-01-07T06:05:54;320.70;;;73.07;;
23995;SDS011;12207;50.076;8.848;2024-01-07T06:08:21;307.83;;;73.57;;
23995;SDS011;12207;50.076;8.848;2024-01-07T06:10:47;306.35;;;72.45;;
23995;SDS011;12207;50.076;8.848;2024-01-07T06:13:13;309.45;;;73.13;;
23995;SDS011;12207;50.076;8.848;2024-01-07T06:15:39;300.45;;;71.43;;
23995;SDS011;12207;50.076;8.848;2024-01-07T06:18:05;304.20;;;71.22;;
23995;SDS011;12207;50.076;8.848;2024-01-07T06:20:31;315.63;;;72.65;;
23995;SDS011;12207;50.076;8.848;2024-01-07T06:23:00;313.50;;;72.80;;
23995;SDS011;12207;50.076;8.848;2024-01-07T06:25:26;298.30;;;70.90;;
23995;SDS011;12207;50.076;8.848;2024-01-07T06:27:52;310.02;;;71.82;;
23995;SDS011;12207;50.076;8.848;2024-01-07T06:30:19;303.17;;;71.50;;
23995;SDS011;12207;50.076;8.848;2024-01-07T06:32:45;309.10;;;71.97;;
23995;SDS011;12207;50.076;8.848;2024-01-07T06:35:11;310.30;;;71.95;;
23995;SDS011;12207;50.076;8.848;2024-01-07T06:37:37;298.85;;;70.50;;
23995;SDS011;12207;50.076;8.848;2024-01-07T06:40:03;286.83;;;69.32;;
23995;SDS011;12207;50.076;8.848;2024-01-07T06:42:30;310.88;;;72.68;;
23995;SDS011;12207;50.076;8.848;2024-01-07T06:44:56;304.58;;;71.82;;
23995;SDS011;12207;50.076;8.848;2024-01-07T06:47:22;291.58;;;71.50;;
23995;SDS011;12207;50.076;8.848;2024-01-07T06:49:48;309.77;;;73.30;;
23995;SDS011;12207;50.076;8.848;2024-01-07T06:52:14;288.10;;;69.78;;
23995;SDS011;12207;50.076;8.848;2024-01-07T06:54:41;305.48;;;70.78;;
23995;SDS011;12207;50.076;8.848;2024-01-07T06:57:09;317.40;;;73.13;;
23995;SDS011;12207;50.076;8.848;2024-01-07T06:59:35;305.20;;;72.05;;
23995;SDS011;12207;50.076;8.848;2024-01-07T07:02:04;307.40;;;72.70;;
23995;SDS011;12207;50.076;8.848;2024-01-07T07:04:30;313.40;;;72.97;;
23995;SDS011;12207;50.076;8.848;2024-01-07T07:06:56;302.88;;;72.03;;
23995;SDS011;12207;50.076;8.848;2024-01-07T07:09:24;297.95;;;70.38;;
23995;SDS011;12207;50.076;8.848;2024-01-07T07:11:50;309.33;;;72.07;;
23995;SDS011;12207;50.076;8.848;2024-01-07T07:14:16;317.33;;;71.88;;
23995;SDS011;12207;50.076;8.848;2024-01-07T07:16:42;319.92;;;75.75;;
23995;SDS011;12207;50.076;8.848;2024-01-07T07:19:08;306.25;;;71.00;;
23995;SDS011;12207;50.076;8.848;2024-01-07T07:21:39;312.83;;;73.60;;
23995;SDS011;12207;50.076;8.848;2024-01-07T07:24:05;294.05;;;70.10;;
23995;SDS011;12207;50.076;8.848;2024-01-07T07:26:32;302.85;;;70.72;;
23995;SDS011;12207;50.076;8.848;2024-01-07T07:29:00;296.90;;;70.70;;
23995;SDS011;12207;50.076;8.848;2024-01-07T07:31:27;299.67;;;69.75;;
23995;SDS011;12207;50.076;8.848;2024-01-07T07:33:53;295.88;;;71.47;;
23995;SDS011;12207;50.076;8.848;2024-01-07T07:36:19;303.80;;;71.25;;
23995;SDS011;12207;50.076;8.848;2024-01-07T07:38:48;303.98;;;71.03;;
23995;SDS011;12207;50.076;8.848;2024-01-07T07:41:17;302.88;;;70.60;;
23995;SDS011;12207;50.076;8.848;2024-01-07T07:43:44;300.00;;;71.05;;
23995;SDS011;12207;50.076;8.848;2024-01-07T07:46:10;288.75;;;70.68;;
23995;SDS011;12207;50.076;8.848;2024-01-07T07:48:37;314.83;;;72.72;;
23995;SDS011;12207;50.076;8.848;2024-01-07T07:51:03;297.38;;;69.82;;
23995;SDS011;12207;50.076;8.848;2024-01-07T07:53:29;306.75;;;70.63;;
23995;SDS011;12207;50.076;8.848;2024-01-07T07:55:55;316.42;;;71.80;;
23995;SDS011;12207;50.076;8.848;2024-01-07T07:58:21;318.33;;;72.38;;
23995;SDS011;12207;50.076;8.848;2024-01-07T08:00:47;295.10;;;69.40;;
23995;SDS011;12207;50.076;8.848;2024-01-07T08:03:13;294.85;;;69.85;;
23995;SDS011;12207;50.076;8.848;2024-01-07T08:05:40;285.35;;;68.72;;
23995;SDS011;12207;50.076;8.848;2024-01-07T08:08:07;287.77;;;70.18;;
23995;SDS011;12207;50.076;8.848;2024-01-07T08:10:33;291.92;;;69.45;;
23995;SDS011;12207;50.076;8.848;2024-01-07T08:13:00;298.67;;;70.68;;
23995;SDS011;12207;50.076;8.848;2024-01-07T08:15:26;296.70;;;69.20;;
23995;SDS011;12207;50.076;8.848;2024-01-07T08:17:52;290.92;;;68.65;;
23995;SDS011;12207;50.076;8.848;2024-01-07T08:20:18;302.83;;;69.72;;
23995;SDS011;12207;50.076;8.848;2024-01-07T08:22:44;293.33;;;69.03;;
23995;SDS011;12207;50.076;8.848;2024-01-07T08:25:10;306.48;;;73.03;;
23995;SDS011;12207;50.076;8.848;2024-01-07T08:27:38;293.17;;;68.57;;
23995;SDS011;12207;50.076;8.848;2024-01-07T08:30:06;275.38;;;67.60;;
23995;SDS011;12207;50.076;8.848;2024-01-07T08:32:33;300.30;;;70.20;;
23995;SDS011;12207;50.076;8.848;2024-01-07T08:35:00;295.98;;;70.35;;
23995;SDS011;12207;50.076;8.848;2024-01-07T08:37:26;294.70;;;69.93;;
23995;SDS011;12207;50.076;8.848;2024-01-07T08:39:52;292.08;;;70.22;;
23995;SDS011;12207;50.076;8.848;2024-01-07T08:42:19;308.33;;;71.50;;
23995;SDS011;12207;50.076;8.848;2024-01-07T08:44:45;287.83;;;68.68;;
23995;SDS011;12207;50.076;8.848;2024-01-07T08:47:12;292.00;;;69.97;;
23995;SDS011;12207;50.076;8.848;2024-01-07T08:49:38;285.20;;;68.75;;
23995;SDS011;12207;50.076;8.848;2024-01-07T08:52:04;287.65;;;69.70;;
23995;SDS011;12207;50.076;8.848;2024-01-07T08:54:31;286.35;;;69.03;;
23995;SDS011;12207;50.076;8.848;2024-01-07T08:56:58;293.95;;;69.03;;
23995;SDS011;12207;50.076;8.848;2024-01-07T08:59:27;296.00;;;70.15;;
23995;SDS011;12207;50.076;8.848;2024-01-07T09:01:53;283.98;;;69.05;;
23995;SDS011;12207;50.076;8.848;2024-01-07T09:04:19;295.55;;;70.40;;
23995;SDS011;12207;50.076;8.848;2024-01-07T09:06:45;303.48;;;71.70;;
23995;SDS011;12207;50.076;8.848;2024-01-07T09:09:11;295.15;;;69.90;;
23995;SDS011;12207;50.076;8.848;2024-01-07T09:11:37;307.38;;;72.70;;
23995;SDS011;12207;50.076;8.848;2024-01-07T09:14:04;301.98;;;70.72;;
23995;SDS011;12207;50.076;8.848;2024-01-07T09:16:30;298.20;;;69.63;;
23995;SDS011;12207;50.076;8.848;2024-01-07T09:18:56;300.27;;;70.68;;
23995;SDS011;12207;50.076;8.848;2024-01-07T09:21:22;302.63;;;71.25;;
23995;SDS011;12207;50.076;8.848;2024-01-07T09:23:48;299.75;;;70.63;;
23995;SDS011;12207;50.076;8.848;2024-01-07T09:26:15;301.88;;;70.70;;
23995;SDS011;12207;50.076;8.848;2024-01-07T09:28:41;300.75;;;70.47;;
23995;SDS011;12207;50.076;8.848;2024-01-07T09:31:07;285.23;;;67.95;;
23995;SDS011;12207;50.076;8.848;2024-01-07T09:33:34;286.60;;;68.30;;
23995;SDS011;12207;50.076;8.848;2024-01-07T09:36:00;309.23;;;70.93;;
23995;SDS011;12207;50.076;8.848;2024-01-07T09:38:26;280.90;;;68.18;;
23995;SDS011;12207;50.076;8.848;2024-01-07T09:40:52;295.20;;;70.03;;
23995;SDS011;12207;50.076;8.848;2024-01-07T09:43:19;292.42;;;69.00;;
23995;SDS011;12207;50.076;8.848;2024-01-07T09:45:46;292.67;;;69.43;;
23995;SDS011;12207;50.076;8.848;2024-01-07T09:48:15;275.15;;;67.03;;
23995;SDS011;12207;50.076;8.848;2024-01-07T09:50:41;292.73;;;70.43;;
23995;SDS011;12207;50.076;8.848;2024-01-07T09:53:10;292.15;;;69.03;;
23995;SDS011;12207;50.076;8.848;2024-01-07T09:58:30;274.73;;;67.57;;
23995;SDS011;12207;50.076;8.848;2024-01-07T10:00:56;280.08;;;68.25;;
23995;SDS011;12207;50.076;8.848;2024-01-07T10:03:23;302.17;;;68.93;;
23995;SDS011;12207;50.076;8.848;2024-01-07T10:05:49;293.10;;;69.68;;
23995;SDS011;12207;50.076;8.848;2024-01-07T10:08:15;286.70;;;68.85;;
23995;SDS011;12207;50.076;8.848;2024-01-07T10:10:45;294.17;;;69.40;;
23995;SDS011;12207;50.076;8.848;2024-01-07T10:13:13;284.73;;;68.78;;
23995;SDS011;12207;50.076;8.848;2024-01-07T10:15:39;283.67;;;68.90;;
23995;SDS011;12207;50.076;8.848;2024-01-07T10:18:06;291.13;;;68.75;;
23995;SDS011;12207;50.076;8.848;2024-01-07T10:20:32;301.75;;;70.15;;
23995;SDS011;12207;50.076;8.848;2024-01-07T10:22:59;288.98;;;69.25;;
23995;SDS011;12207;50.076;8.848;2024-01-07T10:25:26;309.55;;;71.90;;
23995;SDS011;12207;50.076;8.848;2024-01-07T10:27:53;285.98;;;72.10;;
23995;SDS011;12207;50.076;8.848;2024-01-07T10:30:19;295.20;;;69.40;;
23995;SDS011;12207;50.076;8.848;2024-01-07T10:32:46;306.55;;;72.57;;
23995;SDS011;12207;50.076;8.848;2024-01-07T10:35:13;291.85;;;70.65;;
23995;SDS011;12207;50.076;8.848;2024-01-07T10:37:43;311.45;;;73.40;;
23995;SDS011;12207;50.076;8.848;2024-01-07T10:40:11;319.42;;;73.95;;
23995;SDS011;12207;50.076;8.848;2024-01-07T10:42:41;297.35;;;70.93;;
23995;SDS011;12207;50.076;8.848;2024-01-07T10:45:09;290.17;;;69.80;;
23995;SDS011;12207;50.076;8.848;2024-01-07T10:47:36;293.40;;;70.70;;
23995;SDS011;12207;50.076;8.848;2024-01-07T10:50:05;289.52;;;69.80;;
23995;SDS011;12207;50.076;8.848;2024-01-07T10:52:33;293.88;;;70.57;;
23995;SDS011;12207;50.076;8.848;2024-01-07T10:55:07;302.92;;;71.50;;
23995;SDS011;12207;50.076;8.848;2024-01-07T10:57:39;285.50;;;69.78;;
23995;SDS011;12207;50.076;8.848;2024-01-07T11:00:10;299.05;;;70.32;;
23995;SDS011;12207;50.076;8.848;2024-01-07T11:05:42;294.92;;;70.03;;
23995;SDS011;12207;50.076;8.848;2024-01-07T11:08:25;295.38;;;69.68;;
23995;SDS011;12207;50.076;8.848;2024-01-07T11:11:19;279.02;;;69.22;;
23995;SDS011;12207;50.076;8.848;2024-01-07T11:13:52;285.25;;;69.63;;
23995;SDS011;12207;50.076;8.848;2024-01-07T11:19:08;284.50;;;77.05;;
23995;SDS011;12207;50.076;8.848;2024-01-07T11:21:37;289.58;;;69.75;;
23995;SDS011;12207;50.076;8.848;2024-01-07T11:24:03;275.35;;;67.20;;
23995;SDS011;12207;50.076;8.848;2024-01-07T11:26:30;292.98;;;69.25;;
23995;SDS011;12207;50.076;8.848;2024-01-07T11:28:56;276.98;;;67.57;;
23995;SDS011;12207;50.076;8.848;2024-01-07T11:31:56;277.45;;;66.82;;
23995;SDS011;12207;50.076;8.848;2024-01-07T11:37:07;274.92;;;66.93;;
23995;SDS011;12207;50.076;8.848;2024-01-07T11:39:36;271.60;;;66.82;;
23995;SDS011;12207;50.076;8.848;2024-01-07T11:42:03;283.35;;;68.72;;
23995;SDS011;12207;50.076;8.848;2024-01-07T11:44:32;286.65;;;67.40;;
23995;SDS011;12207;50.076;8.848;2024-01-07T11:46:59;283.75;;;68.70;;
23995;SDS011;12207;50.076;8.848;2024-01-07T11:49:26;277.42;;;67.18;;
23995;SDS011;12207;50.076;8.848;2024-01-07T11:51:52;293.88;;;70.82;;
23995;SDS011;12207;50.076;8.848;2024-01-07T11:54:21;293.63;;;71.30;;
23995;SDS011;12207;50.076;8.848;2024-01-07T11:56:47;284.95;;;69.78;;
23995;SDS011;12207;50.076;8.848;2024-01-07T11:59:13;293.10;;;70.82;;
23995;SDS011;12207;50.076;8.848;2024-01-07T12:01:39;286.27;;;69.30;;
23995;SDS011;12207;50.076;8.848;2024-01-07T12:04:05;288.60;;;68.85;;
23995;SDS011;12207;50.076;8.848;2024-01-07T12:06:32;299.08;;;70.82;;
23995;SDS011;12207;50.076;8.848;2024-01-07T12:08:59;280.92;;;69.65;;
23995;SDS011;12207;50.076;8.848;2024-01-07T12:11:26;277.88;;;68.75;;
23995;SDS011;12207;50.076;8.848;2024-01-07T12:13:52;292.98;;;69.93;;
23995;SDS011;12207;50.076;8.848;2024-01-07T12:16:19;290.40;;;69.28;;
23995;SDS011;12207;50.076;8.848;2024-01-07T12:18:46;288.50;;;69.57;;
23995;SDS011;12207;50.076;8.848;2024-01-07T12:21:14;287.73;;;69.63;;
23995;SDS011;12207;50.076;8.848;2024-01-07T12:23:48;280.40;;;67.65;;
23995;SDS011;12207;50.076;8.848;2024-01-07T12:26:17;282.88;;;69.32;;
23995;SDS011;12207;50.076;8.848;2024-01-07T12:28:52;283.83;;;68.28;;
23995;SDS011;12207;50.076;8.848;2024-01-07T12:31:19;299.17;;;70.38;;
23995;SDS011;12207;50.076;8.848;2024-01-07T12:33:46;281.30;;;68.93;;
23995;SDS011;12207;50.076;8.848;2024-01-07T12:36:13;287.95;;;70.65;;
23995;SDS011;12207;50.076;8.848;2024-01-07T12:38:40;300.98;;;84.40;;
23995;SDS011;12207;50.076;8.848;2024-01-07T12:41:06;336.15;;;111.00;;
23995;SDS011;12207;50.076;8.848;2024-01-07T12:43:33;300.45;;;83.53;;
23995;SDS011;12207;50.076;8.848;2024-01-07T12:45:59;288.17;;;82.30;;
23995;SDS011;12207;50.076;8.848;2024-01-07T12:48:30;274.70;;;68.43;;
23995;SDS011;12207;50.076;8.848;2024-01-07T12:50:57;280.30;;;79.25;;
23995;SDS011;12207;50.076;8.848;2024-01-07T12:53:23;289.48;;;83.43;;
23995;SDS011;12207;50.076;8.848;2024-01-07T12:55:49;281.48;;;67.50;;
23995;SDS011;12207;50.076;8.848;2024-01-07T12:58:15;294.15;;;77.95;;
23995;SDS011;12207;50.076;8.848;2024-01-07T13:00:42;292.75;;;75.20;;
23995;SDS011;12207;50.076;8.848;2024-01-07T13:03:09;282.25;;;80.50;;
23995;SDS011;12207;50.076;8.848;2024-01-07T13:05:45;283.35;;;81.22;;
23995;SDS011;12207;50.076;8.848;2024-01-07T13:08:18;280.00;;;78.95;;
23995;SDS011;12207;50.076;8.848;2024-01-07T13:10:48;295.90;;;84.30;;
23995;SDS011;12207;50.076;8.848;2024-01-07T13:13:14;281.52;;;79.25;;
23995;SDS011;12207;50.076;8.848;2024-01-07T13:15:40;292.95;;;82.13;;
23995;SDS011;12207;50.076;8.848;2024-01-07T13:18:09;297.85;;;80.22;;
23995;SDS011;12207;50.076;8.848;2024-01-07T13:20:38;285.67;;;82.65;;
23995;SDS011;12207;50.076;8.848;2024-01-07T13:23:05;271.42;;;76.50;;
23995;SDS011;12207;50.076;8.848;2024-01-07T13:25:31;287.70;;;77.55;;
23995;SDS011;12207;50.076;8.848;2024-01-07T13:28:00;285.83;;;77.00;;
23995;SDS011;12207;50.076;8.848;2024-01-07T13:30:26;280.55;;;74.75;;
23995;SDS011;12207;50.076;8.848;2024-01-07T13:32:52;280.85;;;72.07;;
23995;SDS011;12207;50.076;8.848;2024-01-07T13:35:21;276.00;;;74.15;;
23995;SDS011;12207;50.076;8.848;2024-01-07T13:37:48;280.02;;;74.80;;
23995;SDS011;12207;50.076;8.848;2024-01-07T13:40:14;289.50;;;74.30;;
23995;SDS011;12207;50.076;8.848;2024-01-07T13:42:41;277.23;;;74.65;;
23995;SDS011;12207;50.076;8.848;2024-01-07T13:45:07;264.08;;;72.80;;
23995;SDS011;12207;50.076;8.848;2024-01-07T13:47:33;276.67;;;71.85;;
23995;SDS011;12207;50.076;8.848;2024-01-07T13:50:00;281.10;;;71.75;;
23995;SDS011;12207;50.076;8.848;2024-01-07T13:52:28;285.95;;;74.93;;
23995;SDS011;12207;50.076;8.848;2024-01-07T13:54:54;296.13;;;80.85;;
23995;SDS011;12207;50.076;8.848;2024-01-07T13:57:22;288.08;;;72.60;;
23995;SDS011;12207;50.076;8.848;2024-01-07T13:59:48;281.88;;;75.28;;
23995;SDS011;12207;50.076;8.848;2024-01-07T14:02:14;294.83;;;70.47;;
23995;SDS011;12207;50.076;8.848;2024-01-07T14:04:44;264.48;;;66.22;;
23995;SDS011;12207;50.076;8.848;2024-01-07T14:07:10;270.25;;;65.43;;
23995;SDS011;12207;50.076;8.848;2024-01-07T14:09:36;292.90;;;71.32;;
23995;SDS011;12207;50.076;8.848;2024-01-07T14:12:02;282.65;;;70.78;;
23995;SDS011;12207;50.076;8.848;2024-01-07T14:14:29;272.20;;;69.25;;
23995;SDS011;12207;50.076;8.848;2024-01-07T14:16:55;284.70;;;68.97;;
23995;SDS011;12207;50.076;8.848;2024-01-07T14:19:21;270.60;;;68.32;;